createdAt,value
2022-11-17T00:00:24.335Z,19.52
2022-11-17T00:02:53.956Z,19.75
2022-11-17T00:05:22.106Z,18.10
2022-11-17T00:07:50.351Z,17.38
2022-11-17T00:10:18.997Z,16.48
2022-11-17T00:13:04.408Z,15.23
2022-11-17T00:15:32.570Z,15.38
2022-11-17T00:18:19.580Z,15.35
2022-11-17T00:21:04.827Z,15.13
2022-11-17T00:23:46.921Z,15.05
2022-11-17T00:26:17.326Z,14.68
2022-11-17T00:28:45.932Z,15.43
2022-11-17T00:31:32.483Z,14.82
2022-11-17T00:34:08.016Z,15.18
2022-11-17T00:36:39.135Z,14.52
2022-11-17T00:39:08.020Z,13.98
2022-11-17T00:41:36.604Z,14.02
2022-11-17T00:44:04.908Z,13.07
2022-11-17T00:46:33.278Z,14.13
2022-11-17T00:49:02.670Z,13.77
2022-11-17T00:51:31.048Z,14.15
2022-11-17T00:53:59.171Z,12.73
2022-11-17T00:56:27.587Z,12.50
2022-11-17T00:58:55.702Z,11.48
2022-11-17T01:01:23.917Z,11.23
2022-11-17T01:04:02.633Z,8.80
2022-11-17T01:06:34.741Z,9.27
2022-11-17T01:09:04.062Z,9.13
2022-11-17T01:11:32.164Z,10.30
2022-11-17T01:14:01.753Z,8.98
2022-11-17T01:16:31.602Z,8.98
2022-11-17T01:19:01.387Z,9.73
2022-11-17T01:21:31.337Z,8.93
2022-11-17T01:24:02.553Z,10.18
2022-11-17T01:26:32.894Z,9.35
2022-11-17T01:29:01.912Z,9.68
2022-11-17T01:31:32.524Z,9.23
2022-11-17T01:34:00.643Z,8.75
2022-11-17T01:36:52.268Z,8.88
2022-11-17T01:39:21.802Z,10.02
2022-11-17T01:41:49.888Z,9.43
2022-11-17T01:44:52.547Z,8.77
2022-11-17T01:47:24.666Z,9.05
2022-11-17T01:49:57.293Z,9.32
2022-11-17T01:52:26.153Z,9.60
2022-11-17T01:54:56.577Z,9.85
2022-11-17T01:57:28.738Z,8.00
2022-11-17T02:00:00.585Z,8.45
2022-11-17T02:02:29.591Z,8.23
2022-11-17T02:05:02.921Z,9.00
2022-11-17T02:07:34.807Z,8.65
2022-11-17T02:10:06.803Z,8.32
2022-11-17T02:12:37.334Z,9.35
2022-11-17T02:15:06.639Z,9.25
2022-11-17T02:17:37.920Z,8.55
2022-11-17T02:20:10.224Z,8.57
2022-11-17T02:23:10.589Z,8.73
2022-11-17T02:26:26.542Z,8.50
2022-11-17T02:29:02.033Z,8.70
2022-11-17T02:31:40.375Z,8.85
2022-11-17T02:34:21.801Z,8.73
2022-11-17T02:36:57.801Z,8.95
2022-11-17T02:39:31.405Z,8.57
2022-11-17T02:42:08.907Z,8.55
2022-11-17T02:44:44.819Z,8.75
2022-11-17T02:47:18.217Z,8.38
2022-11-17T02:49:49.678Z,8.93
2022-11-17T02:52:20.517Z,8.60
2022-11-17T02:54:48.620Z,8.43
2022-11-17T02:57:29.984Z,8.40
2022-11-17T03:00:01.212Z,7.97
2022-11-17T03:03:01.851Z,8.38
2022-11-17T03:05:39.575Z,7.82
2022-11-17T03:08:19.913Z,7.25
2022-11-17T03:10:53.822Z,8.02
2022-11-17T03:13:27.314Z,7.70
2022-11-17T03:16:07.121Z,6.68
2022-11-17T03:18:41.515Z,6.95
2022-11-17T03:21:18.121Z,6.95
2022-11-17T03:23:50.967Z,6.90
2022-11-17T03:26:26.661Z,6.97
2022-11-17T03:28:56.592Z,5.82
2022-11-17T03:31:28.736Z,6.05
2022-11-17T03:33:57.871Z,6.32
2022-11-17T03:36:30.164Z,6.30
2022-11-17T03:39:04.037Z,6.47
2022-11-17T03:41:36.371Z,5.03
2022-11-17T03:44:06.242Z,5.95
2022-11-17T03:46:38.034Z,5.30
2022-11-17T03:49:21.925Z,5.63
2022-11-17T03:51:49.996Z,6.25
2022-11-17T03:54:18.515Z,5.90
2022-11-17T03:56:55.524Z,5.20
2022-11-17T03:59:28.264Z,5.18
2022-11-17T04:01:57.948Z,4.90
2022-11-17T04:04:48.962Z,4.55
2022-11-17T04:07:17.109Z,5.22
2022-11-17T04:09:45.216Z,5.22
2022-11-17T04:12:30.849Z,5.28
2022-11-17T04:15:16.417Z,4.63
2022-11-17T04:17:46.345Z,5.72
2022-11-17T04:20:14.464Z,5.63
2022-11-17T04:22:42.943Z,5.25
2022-11-17T04:25:31.124Z,5.18
2022-11-17T04:28:16.589Z,4.88
2022-11-17T04:30:44.659Z,5.20
2022-11-17T04:33:13.990Z,4.25
2022-11-17T04:35:42.026Z,4.22
2022-11-17T04:38:10.160Z,4.13
2022-11-17T04:40:58.197Z,4.40
2022-11-17T04:43:25.929Z,4.25
2022-11-17T04:45:58.958Z,4.22
2022-11-17T04:48:28.920Z,4.10
2022-11-17T04:50:57.712Z,4.05
2022-11-17T04:53:26.033Z,3.88
2022-11-17T04:55:53.982Z,3.33
2022-11-17T04:58:22.106Z,4.68
2022-11-17T05:00:50.122Z,4.50
2022-11-17T05:03:18.110Z,3.30
2022-11-17T05:05:47.925Z,3.42
2022-11-17T05:08:16.333Z,3.55
2022-11-17T05:11:04.086Z,3.13
2022-11-17T05:13:31.991Z,2.88
2022-11-17T05:16:17.448Z,3.45
2022-11-17T05:18:45.488Z,3.28
2022-11-17T05:21:14.872Z,2.85
2022-11-17T05:23:54.911Z,3.03
2022-11-17T05:26:25.800Z,2.88
2022-11-17T05:28:56.048Z,2.90
2022-11-17T05:31:24.545Z,3.00
2022-11-17T05:33:53.176Z,3.33
2022-11-17T05:36:24.353Z,3.42
2022-11-17T05:38:52.920Z,3.88
2022-11-17T05:41:22.011Z,4.13
2022-11-17T05:43:50.902Z,5.25
2022-11-17T05:46:20.053Z,10.65
2022-11-17T05:48:49.994Z,7.72
2022-11-17T05:51:19.260Z,5.43
2022-11-17T05:53:49.224Z,4.60
2022-11-17T05:56:36.599Z,4.80
2022-11-17T05:59:14.739Z,4.32
2022-11-17T06:01:47.956Z,4.07
2022-11-17T06:04:18.614Z,3.95
2022-11-17T06:06:48.694Z,4.00
2022-11-17T06:09:18.618Z,4.00
2022-11-17T06:11:46.701Z,4.18
2022-11-17T06:14:14.839Z,3.83
2022-11-17T06:16:47.577Z,4.10
2022-11-17T06:19:20.707Z,3.28
2022-11-17T06:22:11.276Z,3.60
2022-11-17T06:24:39.586Z,3.42
2022-11-17T06:27:07.794Z,3.15
2022-11-17T06:29:38.276Z,4.32
2022-11-17T06:32:08.937Z,3.88
2022-11-17T06:34:37.594Z,3.85
2022-11-17T06:37:05.765Z,4.63
2022-11-17T06:39:33.857Z,4.25
2022-11-17T06:42:03.326Z,4.28
2022-11-17T06:44:31.396Z,4.35
2022-11-17T06:46:59.533Z,4.22
2022-11-17T06:49:27.583Z,4.30
2022-11-17T06:51:55.612Z,4.50
2022-11-17T06:54:23.751Z,4.35
2022-11-17T06:56:52.494Z,3.83
2022-11-17T06:59:21.995Z,3.83
2022-11-17T07:01:50.081Z,4.53
2022-11-17T07:04:18.137Z,3.47
2022-11-17T07:06:46.240Z,4.00
2022-11-17T07:09:14.514Z,3.85
2022-11-17T07:11:42.507Z,4.35
2022-11-17T07:14:12.148Z,4.47
2022-11-17T07:16:42.753Z,6.07
2022-11-17T07:19:11.802Z,9.00
2022-11-17T07:21:40.996Z,10.73
2022-11-17T07:24:09.279Z,11.75
2022-11-17T07:26:37.359Z,8.15
2022-11-17T07:29:05.451Z,9.43
2022-11-17T07:31:35.615Z,9.25
2022-11-17T07:34:04.979Z,14.48
2022-11-17T07:36:33.049Z,8.15
2022-11-17T07:39:01.552Z,6.25
2022-11-17T07:41:29.638Z,6.45
2022-11-17T07:43:57.764Z,6.80
2022-11-17T07:46:25.954Z,10.00
2022-11-17T07:48:55.276Z,8.25
2022-11-17T07:51:24.726Z,9.00
2022-11-17T07:53:52.768Z,5.47
2022-11-17T07:56:20.943Z,4.47
2022-11-17T07:58:48.960Z,3.50
2022-11-17T08:01:17.102Z,2.75
2022-11-17T08:03:45.559Z,2.88
2022-11-17T08:06:14.296Z,3.30
2022-11-17T08:08:43.673Z,3.08
2022-11-17T08:11:13.621Z,2.70
2022-11-17T08:13:44.134Z,2.58
2022-11-17T08:16:13.448Z,2.90
2022-11-17T08:18:43.088Z,3.30
2022-11-17T08:21:14.663Z,2.42
2022-11-17T08:23:44.042Z,2.45
2022-11-17T08:26:13.025Z,2.63
2022-11-17T08:28:41.127Z,2.28
2022-11-17T08:31:09.617Z,2.55
2022-11-17T08:33:37.678Z,2.47
2022-11-17T08:36:07.275Z,2.25
2022-11-17T08:38:36.193Z,2.40
2022-11-17T08:41:07.567Z,2.28
2022-11-17T08:43:36.226Z,2.20
2022-11-17T08:46:04.883Z,2.67
2022-11-17T08:48:33.484Z,2.03
2022-11-17T08:51:07.027Z,2.00
2022-11-17T08:53:35.295Z,3.25
2022-11-17T08:56:07.061Z,2.45
2022-11-17T08:58:42.424Z,2.50
2022-11-17T09:01:11.087Z,2.00
2022-11-17T09:03:39.540Z,2.20
2022-11-17T09:06:07.911Z,1.65
2022-11-17T09:08:45.520Z,2.10
2022-11-17T09:11:16.570Z,1.70
2022-11-17T09:13:46.946Z,1.35
2022-11-17T09:16:16.930Z,1.42
2022-11-17T09:18:45.512Z,1.13
2022-11-17T09:21:16.001Z,1.25
2022-11-17T09:23:45.654Z,1.20
2022-11-17T09:26:15.863Z,1.15
2022-11-17T09:28:44.253Z,1.33
2022-11-17T09:31:16.337Z,1.30
2022-11-17T09:33:45.639Z,1.23
2022-11-17T09:36:15.353Z,1.42
2022-11-17T09:38:43.720Z,1.20
2022-11-17T09:41:28.969Z,1.35
2022-11-17T09:49:19.427Z,1.10
2022-11-17T09:51:50.344Z,0.95
2022-11-17T09:54:26.180Z,0.93
2022-11-17T09:56:58.932Z,0.93
2022-11-17T09:59:29.583Z,1.00
2022-11-17T10:01:59.169Z,1.15
2022-11-17T10:04:30.431Z,1.00
2022-11-17T10:06:59.476Z,1.00
2022-11-17T10:09:36.103Z,1.10
2022-11-17T10:12:16.339Z,0.80
2022-11-17T10:14:44.714Z,1.00
2022-11-17T10:17:14.163Z,1.00
2022-11-17T10:19:43.920Z,1.20
2022-11-17T10:22:20.957Z,0.95
2022-11-17T10:24:51.659Z,1.05
2022-11-17T10:27:22.018Z,1.00
2022-11-17T10:29:58.242Z,1.70
2022-11-17T10:32:28.333Z,1.02
2022-11-17T10:34:56.411Z,0.75
2022-11-17T10:37:31.870Z,1.00
2022-11-17T10:40:25.117Z,1.00
2022-11-17T10:43:01.027Z,1.10
2022-11-17T10:45:29.998Z,1.52
2022-11-17T10:48:24.192Z,2.88
2022-11-17T10:50:54.633Z,1.00
2022-11-17T10:53:29.223Z,2.42
2022-11-17T10:56:02.980Z,1.67
2022-11-17T10:58:32.878Z,0.80
2022-11-17T11:01:03.829Z,1.55
2022-11-17T11:03:35.455Z,5.22
2022-11-17T11:06:07.131Z,3.25
2022-11-17T11:08:47.157Z,2.97
2022-11-17T11:11:32.029Z,4.68
2022-11-17T11:14:13.021Z,2.95
2022-11-17T11:16:46.680Z,1.80
2022-11-17T11:19:19.808Z,1.67
2022-11-17T11:22:07.098Z,1.25
2022-11-17T11:24:43.921Z,2.90
2022-11-17T11:27:29.290Z,2.38
2022-11-17T11:30:03.863Z,1.60
2022-11-17T11:32:46.855Z,1.00
2022-11-17T11:35:46.718Z,1.50
2022-11-17T11:38:31.481Z,1.23
2022-11-17T11:41:12.116Z,1.20
2022-11-17T11:43:48.920Z,1.20
2022-11-17T11:46:19.705Z,1.50
2022-11-17T11:48:50.615Z,1.23
2022-11-17T11:51:26.251Z,2.17
2022-11-17T11:54:01.412Z,2.40
2022-11-17T11:56:34.273Z,2.60
2022-11-17T11:59:07.530Z,3.97
2022-11-17T12:01:44.800Z,2.60
2022-11-17T12:04:27.573Z,1.45
2022-11-17T12:07:03.076Z,1.25
2022-11-17T12:09:53.597Z,3.75
2022-11-17T12:12:28.140Z,22.08
2022-11-17T12:15:33.600Z,3.38
2022-11-17T12:18:04.844Z,1.30
2022-11-17T12:20:52.550Z,1.30
2022-11-17T12:23:30.684Z,1.25
2022-11-17T12:26:01.102Z,1.30
2022-11-17T12:28:32.922Z,1.15
2022-11-17T12:31:06.656Z,1.10
2022-11-17T12:34:14.899Z,0.90
2022-11-17T12:36:43.614Z,7.22
2022-11-17T12:39:44.957Z,3.03
2022-11-17T12:42:23.879Z,2.67
2022-11-17T12:45:09.012Z,2.92
2022-11-17T12:50:45.967Z,1.40
2022-11-17T12:53:27.974Z,1.17
2022-11-17T12:56:34.611Z,1.33
2022-11-17T12:59:24.424Z,1.65
2022-11-17T13:02:00.731Z,1.70
2022-11-17T13:04:37.331Z,1.80
2022-11-17T13:07:07.118Z,1.90
2022-11-17T13:09:36.843Z,1.70
2022-11-17T13:12:06.716Z,1.50
2022-11-17T13:14:37.821Z,2.35
2022-11-17T13:17:12.535Z,2.25
2022-11-17T13:19:42.660Z,1.52
2022-11-17T13:22:16.853Z,1.50
2022-11-17T13:24:47.558Z,1.90
2022-11-17T13:27:23.321Z,1.52
2022-11-17T13:29:53.071Z,1.80
2022-11-17T13:32:23.898Z,2.47
2022-11-17T13:34:54.188Z,1.77
2022-11-17T13:37:26.382Z,2.20
2022-11-17T13:40:01.958Z,1.80
2022-11-17T13:42:33.213Z,2.03
2022-11-17T13:45:05.401Z,1.60
2022-11-17T13:47:46.485Z,2.22
2022-11-17T13:50:39.959Z,2.20
2022-11-17T13:53:26.559Z,1.48
2022-11-17T13:55:54.814Z,1.60
2022-11-17T13:58:34.839Z,1.75
2022-11-17T14:01:04.496Z,1.80
2022-11-17T14:03:38.316Z,2.40
2022-11-17T14:06:08.468Z,2.47
2022-11-17T14:08:37.679Z,2.45
2022-11-17T14:11:08.625Z,3.08
2022-11-17T14:13:40.117Z,3.30
2022-11-17T14:16:22.284Z,4.03
2022-11-17T14:18:58.916Z,3.97
2022-11-17T14:21:27.710Z,5.40
2022-11-17T14:24:10.619Z,4.40
2022-11-17T14:26:44.519Z,2.17
2022-11-17T14:29:14.156Z,2.27
2022-11-17T14:31:43.736Z,2.38
2022-11-17T14:34:11.876Z,2.42
2022-11-17T14:36:41.306Z,2.60
2022-11-17T14:39:15.924Z,2.10
2022-11-17T14:44:12.637Z,1.80
2022-11-17T14:46:41.674Z,1.80
2022-11-17T14:49:11.092Z,1.70
2022-11-17T14:51:39.378Z,1.27
2022-11-17T14:54:07.521Z,1.70
2022-11-17T14:56:35.901Z,1.58
2022-11-17T14:59:04.093Z,1.80
2022-11-17T15:01:38.284Z,1.92
2022-11-17T15:04:34.379Z,1.85
2022-11-17T15:06:57.153Z,3.28
2022-11-17T15:09:25.257Z,2.50
2022-11-17T15:11:53.224Z,2.60
2022-11-17T15:14:21.365Z,2.95
2022-11-17T15:16:49.561Z,3.45
2022-11-17T15:19:17.771Z,5.30
2022-11-17T15:21:45.892Z,3.88
2022-11-17T15:24:15.632Z,4.78
2022-11-17T15:26:44.420Z,5.30
2022-11-17T15:29:15.266Z,4.90
2022-11-17T15:31:43.727Z,5.38
2022-11-17T15:34:16.980Z,5.13
2022-11-17T15:36:48.063Z,4.95
2022-11-17T15:39:18.289Z,6.32
2022-11-17T15:41:46.590Z,5.30
2022-11-17T15:44:15.150Z,6.70
2022-11-17T15:46:47.382Z,5.97
2022-11-17T15:49:16.347Z,6.70
2022-11-17T15:51:45.321Z,7.15
2022-11-17T15:54:18.435Z,7.13
2022-11-17T15:56:50.875Z,8.18
2022-11-17T15:59:19.657Z,6.78
2022-11-17T16:01:47.944Z,7.40
2022-11-17T16:04:16.765Z,7.97
2022-11-17T16:06:46.731Z,6.55
2022-11-17T16:09:15.769Z,4.93
2022-11-17T16:11:44.691Z,4.80
2022-11-17T16:14:14.900Z,4.20
2022-11-17T16:16:43.664Z,4.80
2022-11-17T16:19:11.709Z,4.40
2022-11-17T16:21:39.948Z,4.55
2022-11-17T16:24:11.855Z,5.30
2022-11-17T16:26:40.186Z,5.53
2022-11-17T16:29:09.201Z,6.10
2022-11-17T16:31:39.805Z,7.03
2022-11-17T16:34:12.782Z,6.97
2022-11-17T16:36:42.642Z,4.95
2022-11-17T16:39:12.410Z,3.42
2022-11-17T16:41:41.958Z,3.28
2022-11-17T16:44:12.160Z,3.20
2022-11-17T16:46:43.931Z,2.97
2022-11-17T16:49:13.975Z,3.33
2022-11-17T16:51:47.244Z,3.55
2022-11-17T16:54:15.925Z,3.92
2022-11-17T16:56:43.941Z,4.07
2022-11-17T16:59:12.488Z,3.03
2022-11-17T17:01:41.879Z,3.33
2022-11-17T17:04:12.159Z,3.05
2022-11-17T17:06:41.338Z,4.00
2022-11-17T17:09:11.306Z,3.88
2022-11-17T17:11:39.423Z,3.38
2022-11-17T17:14:10.094Z,3.45
2022-11-17T17:16:38.715Z,4.18
2022-11-17T17:19:09.933Z,4.72
2022-11-17T17:21:39.253Z,4.05
2022-11-17T17:24:08.240Z,4.18
2022-11-17T17:26:37.352Z,3.47
2022-11-17T17:29:06.845Z,3.83
2022-11-17T17:31:37.254Z,3.40
2022-11-17T17:34:06.309Z,3.42
2022-11-17T17:36:38.428Z,2.95
2022-11-17T17:39:07.110Z,3.28
2022-11-17T17:41:39.680Z,3.15
2022-11-17T17:44:09.284Z,2.53
2022-11-17T17:46:39.496Z,3.35
2022-11-17T17:49:07.974Z,4.43
2022-11-17T17:51:40.098Z,3.67
2022-11-17T17:54:08.584Z,4.97
2022-11-17T17:56:36.709Z,8.05
2022-11-17T17:59:04.692Z,7.20
2022-11-17T18:01:34.093Z,5.13
2022-11-17T18:04:04.794Z,8.32
2022-11-17T18:06:37.323Z,7.78
2022-11-17T18:09:07.481Z,7.03
2022-11-17T18:11:36.668Z,8.20
2022-11-17T18:14:05.124Z,8.73
2022-11-17T18:16:34.705Z,10.38
2022-11-17T18:19:05.143Z,11.65
2022-11-17T18:21:37.430Z,17.02
2022-11-17T18:24:07.501Z,12.63
2022-11-17T18:26:36.822Z,11.00
2022-11-17T18:29:06.595Z,8.40
2022-11-17T18:31:36.696Z,5.47
2022-11-17T18:34:07.122Z,3.30
2022-11-17T18:36:35.828Z,3.22
2022-11-17T18:39:04.040Z,3.25
2022-11-17T18:41:33.863Z,2.95
2022-11-17T18:44:02.413Z,2.70
2022-11-17T18:46:32.210Z,4.88
2022-11-17T18:49:01.260Z,5.93
2022-11-17T18:51:31.184Z,3.45
2022-11-17T18:54:01.009Z,3.03
2022-11-17T18:56:32.442Z,2.95
2022-11-17T18:59:02.345Z,3.50
2022-11-17T19:01:31.657Z,3.13
2022-11-17T19:04:01.472Z,2.97
2022-11-17T19:06:30.159Z,3.33
2022-11-17T19:08:59.561Z,3.20
2022-11-17T19:11:32.768Z,3.17
2022-11-17T19:14:04.245Z,3.38
2022-11-17T19:16:33.014Z,3.53
2022-11-17T19:19:01.219Z,2.90
2022-11-17T19:21:31.760Z,2.63
2022-11-17T19:24:01.732Z,2.28
2022-11-17T19:26:31.516Z,6.68
2022-11-17T19:29:02.471Z,4.18
2022-11-17T19:31:31.239Z,3.55
2022-11-17T19:34:00.046Z,3.92
2022-11-17T19:36:30.380Z,4.88
2022-11-17T19:39:00.319Z,6.25
2022-11-17T19:41:31.089Z,6.07
2022-11-17T19:44:01.022Z,8.30
2022-11-17T19:46:32.167Z,6.75
2022-11-17T19:49:00.430Z,7.75
2022-11-17T19:51:30.362Z,6.45
2022-11-17T19:53:59.994Z,7.20
2022-11-17T19:56:28.632Z,7.45
2022-11-17T19:58:56.942Z,7.90
2022-11-17T20:01:26.832Z,6.28
2022-11-17T20:03:57.613Z,3.47
2022-11-17T20:06:28.172Z,2.50
2022-11-17T20:08:57.403Z,2.40
2022-11-17T20:11:27.550Z,3.80
2022-11-17T20:13:56.428Z,2.92
2022-11-17T20:16:26.709Z,3.88
2022-11-17T20:18:57.641Z,4.03
2022-11-17T20:21:26.696Z,6.25
2022-11-17T20:23:55.157Z,5.90
2022-11-17T20:26:25.195Z,7.38
2022-11-17T20:28:53.715Z,3.92
2022-11-17T20:31:24.314Z,9.02
2022-11-17T20:33:53.554Z,10.20
2022-11-17T20:36:23.483Z,8.88
2022-11-17T20:38:52.177Z,7.68
2022-11-17T20:41:21.366Z,3.10
2022-11-17T20:43:50.344Z,2.45
2022-11-17T20:46:18.380Z,1.65
2022-11-17T20:48:46.706Z,1.48
2022-11-17T20:51:17.148Z,2.85
2022-11-17T20:53:46.498Z,3.53
2022-11-17T20:56:16.249Z,2.03
2022-11-17T20:58:44.621Z,9.15
2022-11-17T21:01:14.842Z,2.80
2022-11-17T21:03:43.345Z,5.60
2022-11-17T21:06:11.611Z,2.05
2022-11-17T21:08:41.252Z,3.22
2022-11-17T21:11:32.467Z,2.67
2022-11-17T21:14:00.739Z,2.80
2022-11-17T21:16:28.704Z,3.10
2022-11-17T21:18:56.729Z,5.90
2022-11-17T21:21:24.641Z,4.90
2022-11-17T21:23:54.217Z,2.55
2022-11-17T21:26:24.252Z,4.38
2022-11-17T21:28:53.413Z,5.03
2022-11-17T21:31:24.513Z,4.63
2022-11-17T21:33:54.704Z,3.30
2022-11-17T21:36:24.015Z,2.08
2022-11-17T21:38:52.306Z,1.80
2022-11-17T21:41:21.664Z,1.50
2022-11-17T21:43:52.272Z,3.35
2022-11-17T21:46:21.996Z,2.00
2022-11-17T21:48:51.250Z,4.05
2022-11-17T21:51:20.838Z,2.80
2022-11-17T21:53:52.725Z,2.70
2022-11-17T21:56:20.753Z,1.88
2022-11-17T21:58:48.793Z,1.38
2022-11-17T22:01:18.213Z,2.10
2022-11-17T22:03:46.264Z,1.60
2022-11-17T22:06:18.042Z,1.20
2022-11-17T22:08:47.651Z,0.95
2022-11-17T22:11:35.009Z,1.30
2022-11-17T22:14:05.535Z,1.55
2022-11-17T22:16:36.033Z,1.05
2022-11-17T22:19:04.434Z,1.10
2022-11-17T22:21:32.913Z,0.93
2022-11-17T22:24:01.124Z,0.90
2022-11-17T22:26:29.061Z,0.98
2022-11-17T22:28:57.453Z,1.10
2022-11-17T22:31:25.760Z,0.85
2022-11-17T22:33:56.598Z,1.20
2022-11-17T22:36:25.691Z,1.20
2022-11-17T22:38:53.684Z,1.20
2022-11-17T22:41:23.435Z,0.93
2022-11-17T22:43:51.727Z,1.00
2022-11-17T22:46:20.707Z,1.42
2022-11-17T22:48:48.973Z,0.93
2022-11-17T22:51:39.518Z,1.00
2022-11-17T22:54:08.694Z,0.85
2022-11-17T22:56:36.845Z,1.00
2022-11-17T22:59:05.017Z,0.95
2022-11-17T23:01:33.256Z,0.82
2022-11-17T23:04:01.491Z,0.93
2022-11-17T23:06:30.876Z,0.93
2022-11-17T23:08:59.015Z,0.70
2022-11-17T23:11:37.133Z,0.60
2022-11-17T23:14:06.435Z,0.70
2022-11-17T23:16:34.456Z,0.50
2022-11-17T23:19:02.587Z,0.63
2022-11-17T23:21:31.937Z,0.60
2022-11-17T23:24:00.229Z,0.57
2022-11-17T23:26:28.270Z,0.50
2022-11-17T23:28:56.318Z,0.90
2022-11-17T23:31:24.294Z,0.40
2022-11-17T23:33:52.220Z,0.50
2022-11-17T23:36:21.824Z,0.40
2022-11-17T23:38:52.212Z,0.43
2022-11-17T23:41:21.745Z,0.50
2022-11-17T23:43:51.627Z,0.50
2022-11-17T23:46:21.724Z,0.43
2022-11-17T23:48:49.751Z,0.40
2022-11-17T23:51:19.474Z,0.68
2022-11-17T23:53:47.880Z,0.50
2022-11-17T23:56:18.050Z,0.77
2022-11-17T23:58:46.092Z,0.70
